createdAt,value
2022-10-12T00:00:44.255Z,12.89
2022-10-12T00:03:13.546Z,12.88
2022-10-12T00:05:41.293Z,12.92
2022-10-12T00:08:09.067Z,12.94
2022-10-12T00:10:41.981Z,12.88
2022-10-12T00:13:10.412Z,12.80
2022-10-12T00:15:39.115Z,12.83
2022-10-12T00:18:07.398Z,12.87
2022-10-12T00:20:36.546Z,12.85
2022-10-12T00:23:04.342Z,12.77
2022-10-12T00:25:32.039Z,12.77
2022-10-12T00:27:59.771Z,12.70
2022-10-12T00:30:27.548Z,12.67
2022-10-12T00:32:55.228Z,12.71
2022-10-12T00:35:23.275Z,12.75
2022-10-12T00:37:56.171Z,12.80
2022-10-12T00:40:24.748Z,12.88
2022-10-12T00:42:52.457Z,12.89
2022-10-12T00:45:20.145Z,12.98
2022-10-12T00:47:51.951Z,13.01
2022-10-12T00:50:25.631Z,12.96
2022-10-12T00:53:01.542Z,13.04
2022-10-12T00:55:32.870Z,13.03
2022-10-12T00:58:02.069Z,12.99
2022-10-12T01:00:29.904Z,13.02
2022-10-12T01:02:59.091Z,13.06
2022-10-12T01:05:26.859Z,13.09
2022-10-12T01:07:54.713Z,13.22
2022-10-12T01:10:23.789Z,13.26
2022-10-12T01:12:51.821Z,13.23
2022-10-12T01:15:19.786Z,13.14
2022-10-12T01:17:58.434Z,13.18
2022-10-12T01:20:48.491Z,13.19
2022-10-12T01:23:43.894Z,13.30
2022-10-12T01:26:47.398Z,13.20
2022-10-12T01:29:31.961Z,13.30
2022-10-12T01:32:07.824Z,13.28
2022-10-12T01:34:45.515Z,13.28
2022-10-12T01:37:19.797Z,13.30
2022-10-12T01:39:53.648Z,12.87
2022-10-12T01:42:26.548Z,13.39
2022-10-12T01:45:03.366Z,13.45
2022-10-12T01:47:34.061Z,13.49
2022-10-12T01:50:03.491Z,13.51
2022-10-12T01:52:32.982Z,13.55
2022-10-12T01:55:11.050Z,13.51
2022-10-12T01:57:51.835Z,13.56
2022-10-12T02:00:20.861Z,13.58
2022-10-12T02:03:00.252Z,13.47
2022-10-12T02:05:38.536Z,13.53
2022-10-12T02:08:14.477Z,13.63
2022-10-12T02:10:45.622Z,13.53
2022-10-12T02:13:16.279Z,13.58
2022-10-12T02:15:45.013Z,13.62
2022-10-12T02:18:18.770Z,13.67
2022-10-12T02:20:47.591Z,13.65
2022-10-12T02:23:16.128Z,13.52
2022-10-12T02:25:44.041Z,13.59
2022-10-12T02:28:16.014Z,13.62
2022-10-12T02:30:49.640Z,13.58
2022-10-12T02:33:22.709Z,13.68
2022-10-12T02:35:53.881Z,13.59
2022-10-12T02:38:28.769Z,13.67
2022-10-12T02:41:01.353Z,13.65
2022-10-12T02:43:34.171Z,13.67
2022-10-12T02:46:04.926Z,13.67
2022-10-12T02:48:36.473Z,13.58
2022-10-12T02:51:05.058Z,13.65
2022-10-12T02:53:32.874Z,13.65
2022-10-12T02:56:03.758Z,13.70
2022-10-12T02:58:31.610Z,13.60
2022-10-12T03:00:59.338Z,13.64
2022-10-12T03:03:27.048Z,13.65
2022-10-12T03:05:57.049Z,13.72
2022-10-12T03:08:24.845Z,13.72
2022-10-12T03:10:52.549Z,13.72
2022-10-12T03:13:20.440Z,13.75
2022-10-12T03:15:48.121Z,13.68
2022-10-12T03:18:15.797Z,13.70
2022-10-12T03:20:43.561Z,13.77
2022-10-12T03:23:12.596Z,13.80
2022-10-12T03:25:40.286Z,13.81
2022-10-12T03:28:08.047Z,13.73
2022-10-12T03:30:35.741Z,13.67
2022-10-12T03:33:03.375Z,13.67
2022-10-12T03:35:31.115Z,13.62
2022-10-12T03:37:59.157Z,13.68
2022-10-12T03:40:28.238Z,13.67
2022-10-12T03:42:55.992Z,13.60
2022-10-12T03:45:23.660Z,13.62
2022-10-12T03:47:51.364Z,13.56
2022-10-12T03:50:19.276Z,13.52
2022-10-12T03:52:46.962Z,13.51
2022-10-12T03:55:15.265Z,13.53
2022-10-12T03:57:44.683Z,13.53
2022-10-12T04:00:13.632Z,13.51
2022-10-12T04:02:41.507Z,13.51
2022-10-12T04:05:10.057Z,13.52
2022-10-12T04:07:38.289Z,13.50
2022-10-12T04:10:07.592Z,13.48
2022-10-12T04:12:35.279Z,13.44
2022-10-12T04:15:04.571Z,13.53
2022-10-12T04:17:32.336Z,13.50
2022-10-12T04:20:00.053Z,13.51
2022-10-12T04:22:27.774Z,13.50
2022-10-12T04:24:55.476Z,13.51
2022-10-12T04:27:23.201Z,13.55
2022-10-12T04:29:50.908Z,13.56
2022-10-12T04:32:19.978Z,13.50
2022-10-12T04:34:47.891Z,13.55
2022-10-12T04:37:15.609Z,13.62
2022-10-12T04:39:43.309Z,13.55
2022-10-12T04:42:11.134Z,13.54
2022-10-12T04:44:38.829Z,13.62
2022-10-12T04:47:06.885Z,13.57
2022-10-12T04:49:36.010Z,13.52
2022-10-12T04:52:03.729Z,13.59
2022-10-12T04:54:32.769Z,13.51
2022-10-12T04:57:00.655Z,13.48
2022-10-12T04:59:28.561Z,13.63
2022-10-12T05:01:56.387Z,13.57
2022-10-12T05:04:24.207Z,13.51
2022-10-12T05:06:53.349Z,13.49
2022-10-12T05:09:21.212Z,13.59
2022-10-12T05:11:49.226Z,13.63
2022-10-12T05:14:16.904Z,13.67
2022-10-12T05:16:44.575Z,13.57
2022-10-12T05:19:12.255Z,13.56
2022-10-12T05:21:40.461Z,13.54
2022-10-12T05:24:09.775Z,13.53
2022-10-12T05:26:37.533Z,13.58
2022-10-12T05:29:05.333Z,13.52
2022-10-12T05:31:33.057Z,13.58
2022-10-12T05:34:00.787Z,13.35
2022-10-12T05:36:28.451Z,13.62
2022-10-12T05:38:56.276Z,13.63
2022-10-12T05:41:25.500Z,13.59
2022-10-12T05:43:53.636Z,13.53
2022-10-12T05:46:21.471Z,13.48
2022-10-12T05:48:49.226Z,13.67
2022-10-12T05:51:16.883Z,13.62
2022-10-12T05:53:44.587Z,13.64
2022-10-12T05:56:12.289Z,13.71
2022-10-12T05:58:42.309Z,13.72
2022-10-12T06:01:12.040Z,13.67
2022-10-12T06:03:40.168Z,13.71
2022-10-12T06:06:08.874Z,13.62
2022-10-12T06:08:37.128Z,13.70
2022-10-12T06:11:05.572Z,13.91
2022-10-12T06:13:33.308Z,13.80
2022-10-12T06:16:02.735Z,13.91
2022-10-12T06:18:30.515Z,13.83
2022-10-12T06:23:45.942Z,13.87
2022-10-12T06:26:13.816Z,13.85
2022-10-12T06:28:41.587Z,13.84
2022-10-12T06:31:11.495Z,13.97
2022-10-12T06:33:39.178Z,13.99
2022-10-12T06:36:07.256Z,14.06
2022-10-12T06:38:34.991Z,14.10
2022-10-12T06:41:02.793Z,14.05
2022-10-12T06:43:30.545Z,14.07
2022-10-12T06:46:00.731Z,14.05
2022-10-12T06:48:30.393Z,14.26
2022-10-12T06:50:58.362Z,14.17
2022-10-12T06:53:28.685Z,14.36
2022-10-12T06:55:56.656Z,14.47
2022-10-12T06:58:24.370Z,14.39
2022-10-12T07:00:52.430Z,14.54
2022-10-12T07:03:20.365Z,14.51
2022-10-12T07:05:49.421Z,14.46
2022-10-12T07:08:17.684Z,14.55
2022-10-12T07:10:45.423Z,14.50
2022-10-12T07:13:13.211Z,14.55
2022-10-12T07:15:40.915Z,14.54
2022-10-12T07:18:08.607Z,14.56
2022-10-12T07:20:36.287Z,14.61
2022-10-12T07:23:05.360Z,14.63
2022-10-12T07:25:33.200Z,14.59
2022-10-12T07:28:00.899Z,14.78
2022-10-12T07:30:28.584Z,14.80
2022-10-12T07:32:56.644Z,14.77
2022-10-12T07:35:24.319Z,14.85
2022-10-12T07:37:52.103Z,14.81
2022-10-12T07:40:21.415Z,14.85
2022-10-12T07:43:11.961Z,14.79
2022-10-12T07:45:37.094Z,14.96
2022-10-12T07:48:05.114Z,15.08
2022-10-12T07:50:32.778Z,15.07
2022-10-12T07:53:00.470Z,14.94
2022-10-12T07:55:31.799Z,14.75
2022-10-12T07:58:00.150Z,14.93
2022-10-12T08:00:28.725Z,14.91
2022-10-12T08:02:56.464Z,15.01
2022-10-12T08:05:24.181Z,14.97
2022-10-12T08:07:52.715Z,14.95
2022-10-12T08:10:20.838Z,15.03
2022-10-12T08:12:52.289Z,15.04
2022-10-12T08:15:20.570Z,15.20
2022-10-12T08:17:50.854Z,15.19
2022-10-12T08:20:18.710Z,15.44
2022-10-12T08:22:46.531Z,15.10
2022-10-12T08:25:14.453Z,15.15
2022-10-12T08:27:42.135Z,15.36
2022-10-12T08:30:12.712Z,15.43
2022-10-12T08:32:40.405Z,15.49
2022-10-12T08:35:08.498Z,15.51
2022-10-12T08:37:36.486Z,15.45
2022-10-12T08:40:04.646Z,15.48
2022-10-12T08:42:42.662Z,15.69
2022-10-12T08:45:34.959Z,15.85
2022-10-12T08:48:12.558Z,15.71
2022-10-12T08:50:47.371Z,15.64
2022-10-12T08:53:20.191Z,15.61
2022-10-12T08:55:48.226Z,15.75
2022-10-12T08:58:20.599Z,15.77
2022-10-12T09:00:53.462Z,15.67
2022-10-12T09:03:39.050Z,15.79
2022-10-12T09:06:13.019Z,15.73
2022-10-12T09:08:55.759Z,15.77
2022-10-12T09:11:32.880Z,15.81
2022-10-12T09:14:06.700Z,15.79
2022-10-12T09:16:40.902Z,15.89
2022-10-12T09:19:16.392Z,15.70
2022-10-12T09:21:47.310Z,15.83
2022-10-12T09:24:18.347Z,15.84
2022-10-12T09:26:49.420Z,15.86
2022-10-12T09:29:26.012Z,15.86
2022-10-12T09:32:12.394Z,15.93
2022-10-12T09:34:40.972Z,16.06
2022-10-12T09:37:15.946Z,15.97
2022-10-12T09:39:43.735Z,16.09
2022-10-12T09:42:13.465Z,16.30
2022-10-12T09:44:45.170Z,16.29
2022-10-12T09:47:28.200Z,16.37
2022-10-12T09:49:58.788Z,16.62
2022-10-12T09:52:31.083Z,16.67
2022-10-12T09:55:03.810Z,16.36
2022-10-12T09:57:37.055Z,16.28
2022-10-12T10:00:08.844Z,16.28
2022-10-12T10:02:49.149Z,16.06
2022-10-12T10:05:26.570Z,16.21
2022-10-12T10:08:13.370Z,16.45
2022-10-12T10:10:49.834Z,16.31
2022-10-12T10:13:18.162Z,16.37
2022-10-12T10:15:49.910Z,16.28
2022-10-12T10:18:25.703Z,16.29
2022-10-12T10:20:55.783Z,16.44
2022-10-12T10:23:26.978Z,16.60
2022-10-12T10:25:58.908Z,16.60
2022-10-12T10:28:29.506Z,16.43
2022-10-12T10:31:00.585Z,16.64
2022-10-12T10:33:31.113Z,16.47
2022-10-12T10:36:02.933Z,16.69
2022-10-12T10:38:33.887Z,16.38
2022-10-12T10:41:06.260Z,16.20
2022-10-12T10:43:34.128Z,16.33
2022-10-12T10:46:04.243Z,16.43
2022-10-12T10:48:50.979Z,16.45
2022-10-12T10:51:19.060Z,16.63
2022-10-12T10:53:48.518Z,16.54
2022-10-12T10:56:21.932Z,16.51
2022-10-12T10:58:53.056Z,16.57
2022-10-12T11:01:25.354Z,16.66
2022-10-12T11:03:59.815Z,16.58
2022-10-12T11:06:38.247Z,16.73
2022-10-12T11:09:11.582Z,16.86
2022-10-12T11:11:41.805Z,16.95
2022-10-12T11:14:16.635Z,16.82
2022-10-12T11:16:49.958Z,16.61
2022-10-12T11:19:30.206Z,16.62
2022-10-12T11:22:01.781Z,16.75
2022-10-12T11:24:34.622Z,16.87
2022-10-12T11:27:08.323Z,16.97
2022-10-12T11:29:37.785Z,16.73
2022-10-12T11:32:09.169Z,16.47
2022-10-12T11:34:49.470Z,16.64
2022-10-12T11:37:21.815Z,16.74
2022-10-12T11:39:53.636Z,16.98
2022-10-12T11:42:30.110Z,17.18
2022-10-12T11:45:00.393Z,17.21
2022-10-12T11:47:35.828Z,17.12
2022-10-12T11:50:08.494Z,17.29
2022-10-12T11:52:41.889Z,17.23
2022-10-12T11:55:27.957Z,16.92
2022-10-12T11:57:59.855Z,16.84
2022-10-12T12:00:35.744Z,17.00
2022-10-12T12:03:16.085Z,16.92
2022-10-12T12:05:45.315Z,16.99
2022-10-12T12:08:22.915Z,16.92
2022-10-12T12:11:07.065Z,16.92
2022-10-12T12:13:34.815Z,16.74
2022-10-12T12:16:36.697Z,16.75
2022-10-12T12:19:18.796Z,16.76
2022-10-12T12:22:04.996Z,16.71
2022-10-12T12:24:34.188Z,16.74
2022-10-12T12:27:01.951Z,16.61
2022-10-12T12:29:29.971Z,16.66
2022-10-12T12:31:59.940Z,16.51
2022-10-12T12:34:29.274Z,16.52
2022-10-12T12:36:58.763Z,16.63
2022-10-12T12:39:31.488Z,16.69
2022-10-12T12:42:02.945Z,16.62
2022-10-12T12:44:41.567Z,16.56
2022-10-12T12:50:31.155Z,16.62
2022-10-12T12:53:06.051Z,16.71
2022-10-12T12:56:09.450Z,16.77
2022-10-12T12:58:52.500Z,16.81
2022-10-12T13:01:39.895Z,16.87
2022-10-12T13:04:30.274Z,16.75
2022-10-12T13:07:27.440Z,16.55
2022-10-12T13:10:23.702Z,16.50
2022-10-12T13:13:23.843Z,16.34
2022-10-12T13:16:07.374Z,16.49
2022-10-12T13:18:49.565Z,16.48
2022-10-12T13:21:19.357Z,16.34
2022-10-12T13:23:50.637Z,16.46
2022-10-12T13:26:24.596Z,16.37
2022-10-12T13:28:54.986Z,16.26
2022-10-12T13:31:28.928Z,16.29
2022-10-12T13:34:06.329Z,16.15
2022-10-12T13:36:37.318Z,16.36
2022-10-12T13:39:15.933Z,16.38
2022-10-12T13:41:45.105Z,16.41
2022-10-12T13:44:23.001Z,16.53
2022-10-12T13:46:56.491Z,16.51
2022-10-12T13:49:26.492Z,16.43
2022-10-12T13:51:56.821Z,16.39
2022-10-12T13:54:26.525Z,16.50
2022-10-12T13:56:58.568Z,16.56
2022-10-12T13:59:27.913Z,16.44
2022-10-12T14:02:00.815Z,16.45
2022-10-12T14:04:30.549Z,16.43
2022-10-12T14:07:02.279Z,16.43
2022-10-12T14:09:40.073Z,16.51
2022-10-12T14:12:08.695Z,16.57
2022-10-12T14:14:38.492Z,16.38
2022-10-12T14:17:08.132Z,16.47
2022-10-12T14:19:45.051Z,16.38
2022-10-12T14:22:19.653Z,16.31
2022-10-12T14:24:47.568Z,16.12
2022-10-12T14:27:24.353Z,16.31
2022-10-12T14:29:57.336Z,16.34
2022-10-12T14:32:45.224Z,16.36
2022-10-12T14:35:20.870Z,16.46
2022-10-12T14:37:50.490Z,16.44
2022-10-12T14:40:31.285Z,16.18
2022-10-12T14:43:01.002Z,16.17
2022-10-12T14:45:28.704Z,16.22
2022-10-12T14:48:03.843Z,16.04
2022-10-12T14:50:41.695Z,16.14
2022-10-12T14:53:13.421Z,16.14
2022-10-12T14:55:42.456Z,16.19
2022-10-12T14:58:18.508Z,16.21
2022-10-12T15:00:46.725Z,16.22
2022-10-12T15:03:18.313Z,16.31
2022-10-12T15:05:46.048Z,16.32
2022-10-12T15:08:13.729Z,16.29
2022-10-12T15:10:41.390Z,16.29
2022-10-12T15:13:13.262Z,16.11
2022-10-12T15:15:43.993Z,16.09
2022-10-12T15:18:12.053Z,16.07
2022-10-12T15:20:44.301Z,15.98
2022-10-12T15:23:16.422Z,15.92
2022-10-12T15:25:49.262Z,16.02
2022-10-12T15:28:17.201Z,16.02
2022-10-12T15:31:11.713Z,16.01
2022-10-12T15:33:33.234Z,15.98
2022-10-12T15:36:02.303Z,15.83
2022-10-12T15:38:30.089Z,15.86
2022-10-12T15:40:58.247Z,15.79
2022-10-12T15:43:26.549Z,15.73
2022-10-12T15:45:56.398Z,15.83
2022-10-12T15:48:24.157Z,15.71
2022-10-12T15:50:51.959Z,15.64
2022-10-12T15:53:24.711Z,15.55
2022-10-12T15:55:52.825Z,15.58
2022-10-12T15:58:20.777Z,15.62
2022-10-12T16:00:48.597Z,15.45
2022-10-12T16:03:22.678Z,15.44
2022-10-12T16:05:53.213Z,15.49
2022-10-12T16:08:22.806Z,15.29
2022-10-12T16:10:51.200Z,15.26
2022-10-12T16:13:19.525Z,15.33
2022-10-12T16:15:47.226Z,15.17
2022-10-12T16:18:16.050Z,15.21
2022-10-12T16:20:46.697Z,15.21
2022-10-12T16:23:21.033Z,15.26
2022-10-12T16:25:50.305Z,15.21
2022-10-12T16:28:18.085Z,15.21
2022-10-12T16:30:46.119Z,15.00
2022-10-12T16:33:13.886Z,14.86
2022-10-12T16:35:44.426Z,14.89
2022-10-12T16:38:14.514Z,14.75
2022-10-12T16:40:42.941Z,14.72
2022-10-12T16:43:12.193Z,14.72
2022-10-12T16:45:39.874Z,14.69
2022-10-12T16:48:07.807Z,14.76
2022-10-12T16:50:39.891Z,14.75
2022-10-12T16:53:07.818Z,14.66
2022-10-12T16:55:38.863Z,14.54
2022-10-12T16:58:06.692Z,14.62
2022-10-12T17:00:36.038Z,14.59
2022-10-12T17:03:04.182Z,14.55
2022-10-12T17:05:31.907Z,14.58
2022-10-12T17:08:00.170Z,14.47
2022-10-12T17:10:28.001Z,14.60
2022-10-12T17:12:55.691Z,14.55
2022-10-12T17:15:23.424Z,14.53
2022-10-12T17:17:54.046Z,14.44
2022-10-12T17:20:21.842Z,14.43
2022-10-12T17:22:49.581Z,14.41
2022-10-12T17:25:17.509Z,14.43
2022-10-12T17:27:45.205Z,14.40
2022-10-12T17:30:13.502Z,14.40
2022-10-12T17:32:41.810Z,14.37
2022-10-12T17:35:11.828Z,14.40
2022-10-12T17:37:39.662Z,14.36
2022-10-12T17:40:09.379Z,14.28
2022-10-12T17:42:37.110Z,14.28
2022-10-12T17:45:05.561Z,14.34
2022-10-12T17:47:33.269Z,14.29
2022-10-12T17:50:01.129Z,14.39
2022-10-12T17:52:30.171Z,14.37
2022-10-12T17:54:57.937Z,14.50
2022-10-12T17:57:25.697Z,14.45
2022-10-12T17:59:54.475Z,14.40
2022-10-12T18:02:22.457Z,14.34
2022-10-12T18:04:50.213Z,14.36
2022-10-12T18:07:18.209Z,14.40
2022-10-12T18:09:47.762Z,14.38
2022-10-12T18:12:15.834Z,14.27
2022-10-12T18:14:43.756Z,14.22
2022-10-12T18:17:11.455Z,14.16
2022-10-12T18:19:39.177Z,14.07
2022-10-12T18:22:06.884Z,14.13
2022-10-12T18:24:34.578Z,14.21
2022-10-12T18:27:03.651Z,14.25
2022-10-12T18:29:33.845Z,14.25
2022-10-12T18:32:03.140Z,14.16
2022-10-12T18:34:35.701Z,14.09
2022-10-12T18:37:04.292Z,14.01
2022-10-12T18:39:32.333Z,13.97
2022-10-12T18:42:00.171Z,14.09
2022-10-12T18:44:29.323Z,14.12
2022-10-12T18:46:57.031Z,14.10
2022-10-12T18:49:24.767Z,14.06
2022-10-12T18:51:52.976Z,13.75
2022-10-12T18:54:20.884Z,14.02
2022-10-12T18:56:50.776Z,14.07
2022-10-12T18:59:19.323Z,14.04
2022-10-12T19:01:48.546Z,13.78
2022-10-12T19:04:16.635Z,13.83
2022-10-12T19:06:44.601Z,13.85
2022-10-12T19:09:14.402Z,13.70
2022-10-12T19:11:42.124Z,13.66
2022-10-12T19:14:14.721Z,13.58
2022-10-12T19:16:43.233Z,13.57
2022-10-12T19:19:20.469Z,13.54
2022-10-12T19:21:49.246Z,13.51
2022-10-12T19:24:17.561Z,13.59
2022-10-12T19:26:45.656Z,13.57
2022-10-12T19:29:13.590Z,13.51
2022-10-12T19:31:45.840Z,13.33
2022-10-12T19:34:16.849Z,13.52
2022-10-12T19:36:45.080Z,13.54
2022-10-12T19:39:15.790Z,13.54
2022-10-12T19:41:43.590Z,13.52
2022-10-12T19:44:13.267Z,13.50
2022-10-12T19:46:42.644Z,13.52
2022-10-12T19:49:15.045Z,13.54
2022-10-12T19:51:43.051Z,13.68
2022-10-12T19:54:12.364Z,13.64
2022-10-12T19:56:40.188Z,13.56
2022-10-12T19:59:08.191Z,13.57
2022-10-12T20:01:37.553Z,13.59
2022-10-12T20:04:07.213Z,13.53
2022-10-12T20:06:37.161Z,13.54
2022-10-12T20:09:07.456Z,13.57
2022-10-12T20:11:35.642Z,13.54
2022-10-12T20:14:03.422Z,13.37
2022-10-12T20:16:34.865Z,13.30
2022-10-12T20:19:03.492Z,13.35
2022-10-12T20:21:31.201Z,13.43
2022-10-12T20:24:00.630Z,13.46
2022-10-12T20:26:29.051Z,13.43
2022-10-12T20:28:56.820Z,13.46
2022-10-12T20:31:24.824Z,13.48
2022-10-12T20:33:53.754Z,13.53
2022-10-12T20:36:24.564Z,13.55
2022-10-12T20:38:52.747Z,13.59
2022-10-12T20:41:23.152Z,13.62
2022-10-12T20:43:54.614Z,13.67
2022-10-12T20:46:22.360Z,13.66
2022-10-12T20:48:52.535Z,13.63
2022-10-12T20:51:26.115Z,13.54
2022-10-12T20:53:54.334Z,13.51
2022-10-12T20:56:23.596Z,13.65
2022-10-12T20:58:51.480Z,13.59
2022-10-12T21:01:19.203Z,13.51
2022-10-12T21:03:47.049Z,13.59
2022-10-12T21:06:17.250Z,13.64
2022-10-12T21:08:45.022Z,13.50
2022-10-12T21:11:12.770Z,13.57
2022-10-12T21:13:41.865Z,13.60
2022-10-12T21:16:10.135Z,13.59
2022-10-12T21:18:40.391Z,13.42
2022-10-12T21:21:14.572Z,13.38
2022-10-12T21:23:43.135Z,13.49
2022-10-12T21:26:12.499Z,13.44
2022-10-12T21:28:45.104Z,13.49
2022-10-12T21:31:14.323Z,13.32
2022-10-12T21:33:42.483Z,13.36
2022-10-12T21:36:12.352Z,13.28
2022-10-12T21:38:40.704Z,13.19
2022-10-12T21:41:09.879Z,13.22
2022-10-12T21:43:38.536Z,13.21
2022-10-12T21:46:09.802Z,13.35
2022-10-12T21:48:38.201Z,13.46
2022-10-12T21:51:07.021Z,13.38
2022-10-12T21:53:35.147Z,13.35
2022-10-12T21:56:06.818Z,13.40
2022-10-12T21:58:34.892Z,13.43
2022-10-12T22:01:08.906Z,13.37
2022-10-12T22:03:36.857Z,13.31
2022-10-12T22:06:05.305Z,13.32
2022-10-12T22:08:33.898Z,13.31
2022-10-12T22:14:01.928Z,13.22
2022-10-12T22:16:31.204Z,13.17
2022-10-12T22:18:59.447Z,13.11
2022-10-12T22:21:27.928Z,13.05
2022-10-12T22:23:56.010Z,13.11
2022-10-12T22:26:24.576Z,13.14
2022-10-12T22:28:52.432Z,13.13
2022-10-12T22:31:21.804Z,13.08
2022-10-12T22:33:51.020Z,13.02
2022-10-12T22:36:18.907Z,12.89
2022-10-12T22:38:46.890Z,12.85
2022-10-12T22:41:17.076Z,12.79
2022-10-12T22:43:44.823Z,12.84
2022-10-12T22:46:12.694Z,12.83
2022-10-12T22:48:40.557Z,12.73
2022-10-12T22:51:10.385Z,12.75
2022-10-12T22:53:38.133Z,12.79
2022-10-12T22:56:08.328Z,12.79
2022-10-12T22:58:36.808Z,12.75
2022-10-12T23:01:06.060Z,12.70
2022-10-12T23:03:34.622Z,12.72
2022-10-12T23:06:02.605Z,12.70
2022-10-12T23:08:32.345Z,12.72
2022-10-12T23:11:04.886Z,12.73
2022-10-12T23:13:32.805Z,12.73
2022-10-12T23:16:04.097Z,12.73
2022-10-12T23:18:32.116Z,12.60
2022-10-12T23:20:59.804Z,12.58
2022-10-12T23:23:27.554Z,12.64
2022-10-12T23:26:01.150Z,12.62
2022-10-12T23:28:29.533Z,12.78
2022-10-12T23:30:57.402Z,12.90
2022-10-12T23:33:25.304Z,12.87
2022-10-12T23:35:57.620Z,12.90
2022-10-12T23:38:26.131Z,12.95
2022-10-12T23:40:53.892Z,12.93
2022-10-12T23:43:22.985Z,13.01
2022-10-12T23:45:50.869Z,13.09
2022-10-12T23:48:18.625Z,13.06
2022-10-12T23:50:46.904Z,13.08
2022-10-12T23:53:15.039Z,13.11
2022-10-12T23:55:42.821Z,13.11
2022-10-12T23:58:10.840Z,13.19
